sensor_id;sensor_type;location;lat;lon;timestamp;P1;durP1;ratioP1;P2;durP2;ratioP2
11522;SDS011;40093;43.224;27.910;2023-02-25T00:01:32;35.40;;;24.57;;
11522;SDS011;40093;43.224;27.910;2023-02-25T00:03:59;34.87;;;25.63;;
11522;SDS011;40093;43.224;27.910;2023-02-25T00:06:26;37.50;;;25.57;;
11522;SDS011;40093;43.224;27.910;2023-02-25T00:08:54;37.97;;;28.10;;
11522;SDS011;40093;43.224;27.910;2023-02-25T00:11:22;39.67;;;27.50;;
11522;SDS011;40093;43.224;27.910;2023-02-25T00:13:51;36.37;;;28.27;;
11522;SDS011;40093;43.224;27.910;2023-02-25T00:16:20;43.63;;;27.37;;
11522;SDS011;40093;43.224;27.910;2023-02-25T00:18:51;40.50;;;28.00;;
11522;SDS011;40093;43.224;27.910;2023-02-25T00:21:19;36.33;;;24.90;;
11522;SDS011;40093;43.224;27.910;2023-02-25T00:23:46;34.97;;;22.27;;
11522;SDS011;40093;43.224;27.910;2023-02-25T00:26:14;35.37;;;22.23;;
11522;SDS011;40093;43.224;27.910;2023-02-25T00:28:42;32.63;;;21.43;;
11522;SDS011;40093;43.224;27.910;2023-02-25T00:31:11;34.93;;;21.73;;
11522;SDS011;40093;43.224;27.910;2023-02-25T00:33:40;27.37;;;20.53;;
11522;SDS011;40093;43.224;27.910;2023-02-25T00:36:08;36.63;;;20.43;;
11522;SDS011;40093;43.224;27.910;2023-02-25T00:38:35;32.17;;;21.70;;
11522;SDS011;40093;43.224;27.910;2023-02-25T00:41:06;33.50;;;23.20;;
11522;SDS011;40093;43.224;27.910;2023-02-25T00:43:37;36.93;;;23.70;;
11522;SDS011;40093;43.224;27.910;2023-02-25T00:46:06;35.10;;;24.03;;
11522;SDS011;40093;43.224;27.910;2023-02-25T00:48:35;35.43;;;23.53;;
11522;SDS011;40093;43.224;27.910;2023-02-25T00:51:05;34.37;;;22.90;;
11522;SDS011;40093;43.224;27.910;2023-02-25T00:53:33;35.67;;;21.57;;
11522;SDS011;40093;43.224;27.910;2023-02-25T00:56:02;35.37;;;23.73;;
11522;SDS011;40093;43.224;27.910;2023-02-25T00:58:30;37.93;;;24.00;;
11522;SDS011;40093;43.224;27.910;2023-02-25T01:01:00;38.37;;;25.80;;
11522;SDS011;40093;43.224;27.910;2023-02-25T01:03:26;40.80;;;26.27;;
11522;SDS011;40093;43.224;27.910;2023-02-25T01:05:55;36.07;;;24.40;;
11522;SDS011;40093;43.224;27.910;2023-02-25T01:08:22;34.70;;;24.53;;
11522;SDS011;40093;43.224;27.910;2023-02-25T01:10:49;31.60;;;22.20;;
11522;SDS011;40093;43.224;27.910;2023-02-25T01:13:17;41.83;;;25.03;;
11522;SDS011;40093;43.224;27.910;2023-02-25T01:15:44;34.40;;;22.53;;
11522;SDS011;40093;43.224;27.910;2023-02-25T01:18:11;35.33;;;22.97;;
11522;SDS011;40093;43.224;27.910;2023-02-25T01:20:38;33.70;;;22.83;;
11522;SDS011;40093;43.224;27.910;2023-02-25T01:23:07;34.87;;;22.23;;
11522;SDS011;40093;43.224;27.910;2023-02-25T01:25:33;36.10;;;22.60;;
11522;SDS011;40093;43.224;27.910;2023-02-25T01:28:04;34.20;;;22.53;;
11522;SDS011;40093;43.224;27.910;2023-02-25T01:30:31;30.27;;;21.87;;
11522;SDS011;40093;43.224;27.910;2023-02-25T01:33:00;31.13;;;22.07;;
11522;SDS011;40093;43.224;27.910;2023-02-25T01:35:27;32.83;;;23.53;;
11522;SDS011;40093;43.224;27.910;2023-02-25T01:37:54;37.37;;;25.77;;
11522;SDS011;40093;43.224;27.910;2023-02-25T01:40:22;33.67;;;24.17;;
11522;SDS011;40093;43.224;27.910;2023-02-25T01:42:49;36.67;;;24.67;;
11522;SDS011;40093;43.224;27.910;2023-02-25T01:45:29;35.87;;;25.37;;
11522;SDS011;40093;43.224;27.910;2023-02-25T01:48:01;33.40;;;24.27;;
11522;SDS011;40093;43.224;27.910;2023-02-25T01:50:36;36.17;;;25.20;;
11522;SDS011;40093;43.224;27.910;2023-02-25T01:53:13;37.00;;;24.97;;
11522;SDS011;40093;43.224;27.910;2023-02-25T01:55:44;39.60;;;24.93;;
11522;SDS011;40093;43.224;27.910;2023-02-25T01:58:11;36.73;;;24.30;;
11522;SDS011;40093;43.224;27.910;2023-02-25T02:00:38;35.90;;;24.57;;
11522;SDS011;40093;43.224;27.910;2023-02-25T02:03:06;31.63;;;23.83;;
11522;SDS011;40093;43.224;27.910;2023-02-25T02:05:44;37.67;;;25.03;;
11522;SDS011;40093;43.224;27.910;2023-02-25T02:08:19;35.23;;;24.90;;
11522;SDS011;40093;43.224;27.910;2023-02-25T02:10:48;33.93;;;23.03;;
11522;SDS011;40093;43.224;27.910;2023-02-25T02:13:15;31.57;;;22.93;;
11522;SDS011;40093;43.224;27.910;2023-02-25T02:15:50;32.40;;;22.97;;
11522;SDS011;40093;43.224;27.910;2023-02-25T02:18:29;33.60;;;22.70;;
11522;SDS011;40093;43.224;27.910;2023-02-25T02:21:02;34.33;;;24.90;;
11522;SDS011;40093;43.224;27.910;2023-02-25T02:23:55;37.10;;;24.20;;
11522;SDS011;40093;43.224;27.910;2023-02-25T02:26:49;33.27;;;24.67;;
11522;SDS011;40093;43.224;27.910;2023-02-25T02:32:31;37.53;;;25.07;;
11522;SDS011;40093;43.224;27.910;2023-02-25T02:35:03;35.80;;;24.03;;
11522;SDS011;40093;43.224;27.910;2023-02-25T02:37:39;35.57;;;23.47;;
11522;SDS011;40093;43.224;27.910;2023-02-25T02:40:17;33.57;;;23.90;;
11522;SDS011;40093;43.224;27.910;2023-02-25T02:42:54;35.03;;;24.53;;
11522;SDS011;40093;43.224;27.910;2023-02-25T02:45:32;33.97;;;22.73;;
11522;SDS011;40093;43.224;27.910;2023-02-25T02:48:08;32.17;;;23.27;;
11522;SDS011;40093;43.224;27.910;2023-02-25T02:50:40;34.63;;;23.27;;
11522;SDS011;40093;43.224;27.910;2023-02-25T02:53:12;33.90;;;23.07;;
11522;SDS011;40093;43.224;27.910;2023-02-25T02:55:42;34.53;;;23.53;;
11522;SDS011;40093;43.224;27.910;2023-02-25T02:58:12;32.33;;;22.83;;
11522;SDS011;40093;43.224;27.910;2023-02-25T03:00:44;32.87;;;22.90;;
11522;SDS011;40093;43.224;27.910;2023-02-25T03:03:16;32.03;;;23.03;;
11522;SDS011;40093;43.224;27.910;2023-02-25T03:05:48;34.23;;;22.10;;
11522;SDS011;40093;43.224;27.910;2023-02-25T03:08:18;35.10;;;21.17;;
11522;SDS011;40093;43.224;27.910;2023-02-25T03:10:50;34.23;;;21.20;;
11522;SDS011;40093;43.224;27.910;2023-02-25T03:13:17;31.17;;;21.63;;
11522;SDS011;40093;43.224;27.910;2023-02-25T03:15:44;31.53;;;21.20;;
11522;SDS011;40093;43.224;27.910;2023-02-25T03:18:17;31.90;;;21.57;;
11522;SDS011;40093;43.224;27.910;2023-02-25T03:20:48;32.67;;;21.97;;
11522;SDS011;40093;43.224;27.910;2023-02-25T03:23:18;31.90;;;20.57;;
11522;SDS011;40093;43.224;27.910;2023-02-25T03:25:49;32.50;;;21.77;;
11522;SDS011;40093;43.224;27.910;2023-02-25T03:28:22;29.73;;;20.67;;
11522;SDS011;40093;43.224;27.910;2023-02-25T03:30:55;28.23;;;20.90;;
11522;SDS011;40093;43.224;27.910;2023-02-25T03:33:29;35.93;;;23.10;;
11522;SDS011;40093;43.224;27.910;2023-02-25T03:36:02;34.07;;;22.73;;
11522;SDS011;40093;43.224;27.910;2023-02-25T03:38:34;34.83;;;22.83;;
11522;SDS011;40093;43.224;27.910;2023-02-25T03:41:03;34.17;;;21.87;;
11522;SDS011;40093;43.224;27.910;2023-02-25T03:43:35;32.80;;;22.60;;
11522;SDS011;40093;43.224;27.910;2023-02-25T03:46:06;37.33;;;23.60;;
11522;SDS011;40093;43.224;27.910;2023-02-25T03:48:36;36.20;;;22.70;;
11522;SDS011;40093;43.224;27.910;2023-02-25T03:51:04;34.73;;;22.80;;
11522;SDS011;40093;43.224;27.910;2023-02-25T03:53:32;32.10;;;22.30;;
11522;SDS011;40093;43.224;27.910;2023-02-25T03:56:01;34.93;;;22.93;;
11522;SDS011;40093;43.224;27.910;2023-02-25T03:58:30;37.77;;;23.73;;
11522;SDS011;40093;43.224;27.910;2023-02-25T04:00:58;31.80;;;22.57;;
11522;SDS011;40093;43.224;27.910;2023-02-25T04:03:27;35.67;;;24.63;;
11522;SDS011;40093;43.224;27.910;2023-02-25T04:05:56;32.67;;;22.70;;
11522;SDS011;40093;43.224;27.910;2023-02-25T04:08:23;32.43;;;22.27;;
11522;SDS011;40093;43.224;27.910;2023-02-25T04:10:50;36.23;;;23.47;;
11522;SDS011;40093;43.224;27.910;2023-02-25T04:13:17;32.77;;;22.77;;
11522;SDS011;40093;43.224;27.910;2023-02-25T04:15:45;37.37;;;21.50;;
11522;SDS011;40093;43.224;27.910;2023-02-25T04:18:14;31.47;;;21.13;;
11522;SDS011;40093;43.224;27.910;2023-02-25T04:20:41;33.63;;;22.70;;
11522;SDS011;40093;43.224;27.910;2023-02-25T04:23:11;31.13;;;22.17;;
11522;SDS011;40093;43.224;27.910;2023-02-25T04:25:41;31.07;;;21.60;;
11522;SDS011;40093;43.224;27.910;2023-02-25T04:28:08;31.87;;;21.63;;
11522;SDS011;40093;43.224;27.910;2023-02-25T04:30:35;32.03;;;21.43;;
11522;SDS011;40093;43.224;27.910;2023-02-25T04:33:02;31.90;;;22.63;;
11522;SDS011;40093;43.224;27.910;2023-02-25T04:35:29;31.23;;;21.97;;
11522;SDS011;40093;43.224;27.910;2023-02-25T04:37:56;32.37;;;22.07;;
11522;SDS011;40093;43.224;27.910;2023-02-25T04:40:25;32.83;;;21.70;;
11522;SDS011;40093;43.224;27.910;2023-02-25T04:42:52;30.87;;;21.93;;
11522;SDS011;40093;43.224;27.910;2023-02-25T04:45:19;34.93;;;22.30;;
11522;SDS011;40093;43.224;27.910;2023-02-25T04:47:50;35.83;;;22.83;;
11522;SDS011;40093;43.224;27.910;2023-02-25T04:50:17;32.97;;;22.57;;
11522;SDS011;40093;43.224;27.910;2023-02-25T04:52:45;35.43;;;22.90;;
11522;SDS011;40093;43.224;27.910;2023-02-25T04:55:12;36.57;;;23.73;;
11522;SDS011;40093;43.224;27.910;2023-02-25T04:57:41;36.17;;;24.37;;
11522;SDS011;40093;43.224;27.910;2023-02-25T05:00:09;36.30;;;24.03;;
11522;SDS011;40093;43.224;27.910;2023-02-25T05:02:44;32.47;;;23.67;;
11522;SDS011;40093;43.224;27.910;2023-02-25T05:05:12;38.97;;;24.23;;
11522;SDS011;40093;43.224;27.910;2023-02-25T05:07:40;36.13;;;24.20;;
11522;SDS011;40093;43.224;27.910;2023-02-25T05:10:08;34.13;;;24.63;;
11522;SDS011;40093;43.224;27.910;2023-02-25T05:12:37;34.57;;;24.10;;
11522;SDS011;40093;43.224;27.910;2023-02-25T05:15:06;33.30;;;24.43;;
11522;SDS011;40093;43.224;27.910;2023-02-25T05:17:34;35.67;;;24.07;;
11522;SDS011;40093;43.224;27.910;2023-02-25T05:20:02;34.60;;;24.47;;
11522;SDS011;40093;43.224;27.910;2023-02-25T05:22:35;37.37;;;24.40;;
11522;SDS011;40093;43.224;27.910;2023-02-25T05:25:02;36.90;;;24.97;;
11522;SDS011;40093;43.224;27.910;2023-02-25T05:27:31;41.10;;;27.00;;
11522;SDS011;40093;43.224;27.910;2023-02-25T05:29:57;77.80;;;49.20;;
11522;SDS011;40093;43.224;27.910;2023-02-25T05:32:26;45.80;;;31.13;;
11522;SDS011;40093;43.224;27.910;2023-02-25T05:34:53;37.70;;;26.50;;
11522;SDS011;40093;43.224;27.910;2023-02-25T05:37:19;36.23;;;24.60;;
11522;SDS011;40093;43.224;27.910;2023-02-25T05:39:46;38.70;;;25.63;;
11522;SDS011;40093;43.224;27.910;2023-02-25T05:42:13;33.63;;;24.40;;
11522;SDS011;40093;43.224;27.910;2023-02-25T05:44:40;35.33;;;24.63;;
11522;SDS011;40093;43.224;27.910;2023-02-25T05:47:07;34.37;;;24.17;;
11522;SDS011;40093;43.224;27.910;2023-02-25T05:49:35;33.57;;;24.17;;
11522;SDS011;40093;43.224;27.910;2023-02-25T05:52:02;34.73;;;24.57;;
11522;SDS011;40093;43.224;27.910;2023-02-25T05:54:29;33.80;;;24.03;;
11522;SDS011;40093;43.224;27.910;2023-02-25T05:56:56;36.03;;;25.50;;
11522;SDS011;40093;43.224;27.910;2023-02-25T05:59:23;36.00;;;26.17;;
11522;SDS011;40093;43.224;27.910;2023-02-25T06:01:50;37.50;;;25.47;;
11522;SDS011;40093;43.224;27.910;2023-02-25T06:04:16;36.77;;;26.53;;
11522;SDS011;40093;43.224;27.910;2023-02-25T06:06:46;33.00;;;25.47;;
11522;SDS011;40093;43.224;27.910;2023-02-25T06:09:14;34.80;;;26.07;;
11522;SDS011;40093;43.224;27.910;2023-02-25T06:11:43;32.80;;;24.53;;
11522;SDS011;40093;43.224;27.910;2023-02-25T06:14:11;34.33;;;25.07;;
11522;SDS011;40093;43.224;27.910;2023-02-25T06:16:43;34.80;;;24.97;;
11522;SDS011;40093;43.224;27.910;2023-02-25T06:19:15;38.70;;;27.97;;
11522;SDS011;40093;43.224;27.910;2023-02-25T06:21:41;36.03;;;26.77;;
11522;SDS011;40093;43.224;27.910;2023-02-25T06:24:10;39.33;;;29.17;;
11522;SDS011;40093;43.224;27.910;2023-02-25T06:26:36;37.17;;;28.30;;
11522;SDS011;40093;43.224;27.910;2023-02-25T06:29:07;42.70;;;30.53;;
11522;SDS011;40093;43.224;27.910;2023-02-25T06:31:34;44.70;;;32.50;;
11522;SDS011;40093;43.224;27.910;2023-02-25T06:34:02;45.17;;;31.60;;
11522;SDS011;40093;43.224;27.910;2023-02-25T06:36:29;42.17;;;31.83;;
11522;SDS011;40093;43.224;27.910;2023-02-25T06:38:56;41.60;;;32.30;;
11522;SDS011;40093;43.224;27.910;2023-02-25T06:41:25;42.43;;;31.60;;
11522;SDS011;40093;43.224;27.910;2023-02-25T06:43:52;42.03;;;32.27;;
11522;SDS011;40093;43.224;27.910;2023-02-25T06:46:20;39.40;;;30.83;;
11522;SDS011;40093;43.224;27.910;2023-02-25T06:48:48;37.93;;;30.07;;
11522;SDS011;40093;43.224;27.910;2023-02-25T06:51:16;49.60;;;35.33;;
11522;SDS011;40093;43.224;27.910;2023-02-25T06:53:43;38.43;;;28.63;;
11522;SDS011;40093;43.224;27.910;2023-02-25T06:56:13;38.67;;;29.03;;
11522;SDS011;40093;43.224;27.910;2023-02-25T06:58:45;39.27;;;27.60;;
11522;SDS011;40093;43.224;27.910;2023-02-25T07:01:13;41.90;;;29.17;;
11522;SDS011;40093;43.224;27.910;2023-02-25T07:03:43;46.70;;;30.73;;
11522;SDS011;40093;43.224;27.910;2023-02-25T07:06:10;39.70;;;29.80;;
11522;SDS011;40093;43.224;27.910;2023-02-25T07:08:38;42.37;;;29.97;;
11522;SDS011;40093;43.224;27.910;2023-02-25T07:11:12;43.17;;;31.50;;
11522;SDS011;40093;43.224;27.910;2023-02-25T07:13:40;43.23;;;32.60;;
11522;SDS011;40093;43.224;27.910;2023-02-25T07:16:09;47.07;;;33.00;;
11522;SDS011;40093;43.224;27.910;2023-02-25T07:18:36;39.40;;;29.57;;
11522;SDS011;40093;43.224;27.910;2023-02-25T07:21:04;39.00;;;29.10;;
11522;SDS011;40093;43.224;27.910;2023-02-25T07:23:31;38.70;;;28.27;;
11522;SDS011;40093;43.224;27.910;2023-02-25T07:26:00;42.23;;;29.27;;
11522;SDS011;40093;43.224;27.910;2023-02-25T07:28:28;42.93;;;31.27;;
11522;SDS011;40093;43.224;27.910;2023-02-25T07:30:55;44.23;;;34.20;;
11522;SDS011;40093;43.224;27.910;2023-02-25T07:33:27;41.07;;;27.80;;
11522;SDS011;40093;43.224;27.910;2023-02-25T07:35:59;37.83;;;26.23;;
11522;SDS011;40093;43.224;27.910;2023-02-25T07:38:26;36.53;;;25.70;;
11522;SDS011;40093;43.224;27.910;2023-02-25T07:40:53;35.80;;;25.10;;
11522;SDS011;40093;43.224;27.910;2023-02-25T07:43:20;35.67;;;25.90;;
11522;SDS011;40093;43.224;27.910;2023-02-25T07:45:47;34.43;;;25.53;;
11522;SDS011;40093;43.224;27.910;2023-02-25T07:48:15;35.40;;;25.33;;
11522;SDS011;40093;43.224;27.910;2023-02-25T07:50:43;37.37;;;25.70;;
11522;SDS011;40093;43.224;27.910;2023-02-25T07:53:10;34.33;;;24.93;;
11522;SDS011;40093;43.224;27.910;2023-02-25T07:55:37;39.50;;;25.13;;
11522;SDS011;40093;43.224;27.910;2023-02-25T07:58:07;33.90;;;24.40;;
11522;SDS011;40093;43.224;27.910;2023-02-25T08:00:34;34.33;;;24.57;;
11522;SDS011;40093;43.224;27.910;2023-02-25T08:03:02;39.03;;;25.80;;
11522;SDS011;40093;43.224;27.910;2023-02-25T08:05:32;35.43;;;24.73;;
11522;SDS011;40093;43.224;27.910;2023-02-25T08:08:01;36.83;;;26.17;;
11522;SDS011;40093;43.224;27.910;2023-02-25T08:10:27;36.73;;;25.37;;
11522;SDS011;40093;43.224;27.910;2023-02-25T08:12:54;36.07;;;25.33;;
11522;SDS011;40093;43.224;27.910;2023-02-25T08:15:21;35.63;;;25.50;;
11522;SDS011;40093;43.224;27.910;2023-02-25T08:17:49;36.83;;;25.43;;
11522;SDS011;40093;43.224;27.910;2023-02-25T08:20:17;34.50;;;24.63;;
11522;SDS011;40093;43.224;27.910;2023-02-25T08:22:44;32.10;;;24.80;;
11522;SDS011;40093;43.224;27.910;2023-02-25T08:25:12;34.27;;;24.87;;
11522;SDS011;40093;43.224;27.910;2023-02-25T08:27:39;35.80;;;24.33;;
11522;SDS011;40093;43.224;27.910;2023-02-25T08:30:08;38.67;;;27.10;;
11522;SDS011;40093;43.224;27.910;2023-02-25T08:32:36;35.10;;;25.37;;
11522;SDS011;40093;43.224;27.910;2023-02-25T08:35:04;34.10;;;24.17;;
11522;SDS011;40093;43.224;27.910;2023-02-25T08:37:32;30.20;;;22.53;;
11522;SDS011;40093;43.224;27.910;2023-02-25T08:39:59;36.60;;;21.70;;
11522;SDS011;40093;43.224;27.910;2023-02-25T08:42:27;35.67;;;21.47;;
11522;SDS011;40093;43.224;27.910;2023-02-25T08:44:54;23.80;;;18.43;;
11522;SDS011;40093;43.224;27.910;2023-02-25T08:47:21;26.20;;;19.23;;
11522;SDS011;40093;43.224;27.910;2023-02-25T08:49:48;26.37;;;19.03;;
11522;SDS011;40093;43.224;27.910;2023-02-25T08:52:15;26.47;;;19.47;;
11522;SDS011;40093;43.224;27.910;2023-02-25T08:54:42;28.13;;;18.63;;
11522;SDS011;40093;43.224;27.910;2023-02-25T08:57:08;26.57;;;18.57;;
11522;SDS011;40093;43.224;27.910;2023-02-25T08:59:37;26.67;;;19.47;;
11522;SDS011;40093;43.224;27.910;2023-02-25T09:02:05;30.30;;;18.40;;
11522;SDS011;40093;43.224;27.910;2023-02-25T09:04:39;24.13;;;18.30;;
11522;SDS011;40093;43.224;27.910;2023-02-25T09:07:06;26.37;;;19.67;;
11522;SDS011;40093;43.224;27.910;2023-02-25T09:09:33;24.20;;;17.80;;
11522;SDS011;40093;43.224;27.910;2023-02-25T09:12:00;25.60;;;18.07;;
11522;SDS011;40093;43.224;27.910;2023-02-25T09:14:29;26.80;;;18.23;;
11522;SDS011;40093;43.224;27.910;2023-02-25T09:16:57;26.83;;;17.23;;
11522;SDS011;40093;43.224;27.910;2023-02-25T09:19:24;22.20;;;16.40;;
11522;SDS011;40093;43.224;27.910;2023-02-25T09:21:51;30.83;;;18.03;;
11522;SDS011;40093;43.224;27.910;2023-02-25T09:24:18;26.80;;;17.73;;
11522;SDS011;40093;43.224;27.910;2023-02-25T09:26:45;21.67;;;15.73;;
11522;SDS011;40093;43.224;27.910;2023-02-25T09:29:12;22.73;;;15.97;;
11522;SDS011;40093;43.224;27.910;2023-02-25T09:31:39;25.13;;;16.73;;
11522;SDS011;40093;43.224;27.910;2023-02-25T09:34:08;21.40;;;14.67;;
11522;SDS011;40093;43.224;27.910;2023-02-25T09:36:38;23.77;;;15.77;;
11522;SDS011;40093;43.224;27.910;2023-02-25T09:39:05;18.20;;;15.00;;
11522;SDS011;40093;43.224;27.910;2023-02-25T09:41:34;22.60;;;14.77;;
11522;SDS011;40093;43.224;27.910;2023-02-25T09:44:12;18.70;;;13.80;;
11522;SDS011;40093;43.224;27.910;2023-02-25T09:46:44;21.83;;;14.93;;
11522;SDS011;40093;43.224;27.910;2023-02-25T09:49:17;20.47;;;13.80;;
11522;SDS011;40093;43.224;27.910;2023-02-25T09:51:52;24.03;;;14.67;;
11522;SDS011;40093;43.224;27.910;2023-02-25T09:54:24;19.17;;;13.40;;
11522;SDS011;40093;43.224;27.910;2023-02-25T09:56:55;20.77;;;13.50;;
11522;SDS011;40093;43.224;27.910;2023-02-25T09:59:26;18.03;;;12.20;;
11522;SDS011;40093;43.224;27.910;2023-02-25T10:01:55;21.93;;;12.70;;
11522;SDS011;40093;43.224;27.910;2023-02-25T10:04:36;22.07;;;12.87;;
11522;SDS011;40093;43.224;27.910;2023-02-25T10:07:07;19.60;;;12.37;;
11522;SDS011;40093;43.224;27.910;2023-02-25T10:09:44;21.57;;;12.67;;
11522;SDS011;40093;43.224;27.910;2023-02-25T10:12:21;25.07;;;12.97;;
11522;SDS011;40093;43.224;27.910;2023-02-25T10:17:55;19.37;;;11.97;;
11522;SDS011;40093;43.224;27.910;2023-02-25T10:20:41;21.33;;;11.83;;
11522;SDS011;40093;43.224;27.910;2023-02-25T10:23:16;22.73;;;12.50;;
11522;SDS011;40093;43.224;27.910;2023-02-25T10:25:55;18.60;;;13.03;;
11522;SDS011;40093;43.224;27.910;2023-02-25T10:28:25;17.50;;;12.77;;
11522;SDS011;40093;43.224;27.910;2023-02-25T10:30:57;23.27;;;14.27;;
11522;SDS011;40093;43.224;27.910;2023-02-25T10:33:30;22.63;;;13.53;;
11522;SDS011;40093;43.224;27.910;2023-02-25T10:36:05;23.50;;;13.47;;
11522;SDS011;40093;43.224;27.910;2023-02-25T10:38:34;20.57;;;13.40;;
11522;SDS011;40093;43.224;27.910;2023-02-25T10:41:06;19.97;;;13.07;;
11522;SDS011;40093;43.224;27.910;2023-02-25T10:43:33;18.23;;;12.57;;
11522;SDS011;40093;43.224;27.910;2023-02-25T10:46:02;21.27;;;12.90;;
11522;SDS011;40093;43.224;27.910;2023-02-25T10:48:34;16.97;;;12.70;;
11522;SDS011;40093;43.224;27.910;2023-02-25T10:51:15;20.17;;;13.93;;
11522;SDS011;40093;43.224;27.910;2023-02-25T10:53:59;20.37;;;13.77;;
11522;SDS011;40093;43.224;27.910;2023-02-25T10:56:30;19.03;;;12.77;;
11522;SDS011;40093;43.224;27.910;2023-02-25T10:59:04;20.23;;;13.30;;
11522;SDS011;40093;43.224;27.910;2023-02-25T11:01:34;21.23;;;11.83;;
11522;SDS011;40093;43.224;27.910;2023-02-25T11:04:03;19.10;;;13.10;;
11522;SDS011;40093;43.224;27.910;2023-02-25T11:06:38;18.47;;;11.60;;
11522;SDS011;40093;43.224;27.910;2023-02-25T11:11:54;23.67;;;12.93;;
11522;SDS011;40093;43.224;27.910;2023-02-25T11:14:25;15.50;;;10.93;;
11522;SDS011;40093;43.224;27.910;2023-02-25T11:17:00;19.07;;;11.30;;
11522;SDS011;40093;43.224;27.910;2023-02-25T11:19:29;19.40;;;11.40;;
11522;SDS011;40093;43.224;27.910;2023-02-25T11:22:07;23.17;;;11.57;;
11522;SDS011;40093;43.224;27.910;2023-02-25T11:24:37;21.53;;;10.70;;
11522;SDS011;40093;43.224;27.910;2023-02-25T11:27:06;17.80;;;11.47;;
11522;SDS011;40093;43.224;27.910;2023-02-25T11:29:37;18.33;;;10.80;;
11522;SDS011;40093;43.224;27.910;2023-02-25T11:32:09;29.93;;;11.83;;
11522;SDS011;40093;43.224;27.910;2023-02-25T11:34:43;25.07;;;12.60;;
11522;SDS011;40093;43.224;27.910;2023-02-25T11:37:24;22.27;;;11.07;;
11522;SDS011;40093;43.224;27.910;2023-02-25T11:39:59;17.03;;;11.30;;
11522;SDS011;40093;43.224;27.910;2023-02-25T11:42:26;21.33;;;11.03;;
11522;SDS011;40093;43.224;27.910;2023-02-25T11:44:57;17.87;;;10.53;;
11522;SDS011;40093;43.224;27.910;2023-02-25T11:47:25;15.77;;;10.17;;
11522;SDS011;40093;43.224;27.910;2023-02-25T11:52:48;23.43;;;11.10;;
11522;SDS011;40093;43.224;27.910;2023-02-25T11:55:23;17.00;;;11.07;;
11522;SDS011;40093;43.224;27.910;2023-02-25T11:58:19;19.13;;;10.47;;
11522;SDS011;40093;43.224;27.910;2023-02-25T12:00:57;21.80;;;11.63;;
11522;SDS011;40093;43.224;27.910;2023-02-25T12:03:44;25.53;;;11.00;;
11522;SDS011;40093;43.224;27.910;2023-02-25T12:06:25;22.07;;;11.27;;
11522;SDS011;40093;43.224;27.910;2023-02-25T12:09:11;19.23;;;10.20;;
11522;SDS011;40093;43.224;27.910;2023-02-25T12:18:22;20.70;;;10.80;;
11522;SDS011;40093;43.224;27.910;2023-02-25T12:21:14;21.43;;;11.13;;
11522;SDS011;40093;43.224;27.910;2023-02-25T12:24:19;22.60;;;10.50;;
11522;SDS011;40093;43.224;27.910;2023-02-25T12:33:05;22.37;;;11.73;;
11522;SDS011;40093;43.224;27.910;2023-02-25T12:35:46;22.30;;;11.10;;
11522;SDS011;40093;43.224;27.910;2023-02-25T12:38:49;21.93;;;11.50;;
11522;SDS011;40093;43.224;27.910;2023-02-25T12:41:33;21.93;;;10.03;;
11522;SDS011;40093;43.224;27.910;2023-02-25T12:44:11;18.23;;;10.57;;
11522;SDS011;40093;43.224;27.910;2023-02-25T12:46:56;26.50;;;12.33;;
11522;SDS011;40093;43.224;27.910;2023-02-25T12:49:34;18.27;;;11.33;;
11522;SDS011;40093;43.224;27.910;2023-02-25T12:52:19;21.57;;;11.23;;
11522;SDS011;40093;43.224;27.910;2023-02-25T12:55:06;18.07;;;11.17;;
11522;SDS011;40093;43.224;27.910;2023-02-25T12:57:51;23.50;;;11.63;;
11522;SDS011;40093;43.224;27.910;2023-02-25T13:00:37;23.73;;;11.37;;
11522;SDS011;40093;43.224;27.910;2023-02-25T13:03:24;19.40;;;10.63;;
11522;SDS011;40093;43.224;27.910;2023-02-25T13:09:18;24.73;;;10.50;;
11522;SDS011;40093;43.224;27.910;2023-02-25T13:12:00;26.77;;;10.87;;
11522;SDS011;40093;43.224;27.910;2023-02-25T13:14:48;18.50;;;10.77;;
11522;SDS011;40093;43.224;27.910;2023-02-25T13:17:36;20.30;;;11.30;;
11522;SDS011;40093;43.224;27.910;2023-02-25T13:20:25;19.07;;;10.60;;
11522;SDS011;40093;43.224;27.910;2023-02-25T13:26:17;20.33;;;11.53;;
11522;SDS011;40093;43.224;27.910;2023-02-25T13:28:58;24.27;;;12.27;;
11522;SDS011;40093;43.224;27.910;2023-02-25T13:31:42;20.73;;;12.30;;
11522;SDS011;40093;43.224;27.910;2023-02-25T13:34:20;21.40;;;12.23;;
11522;SDS011;40093;43.224;27.910;2023-02-25T13:39:51;22.60;;;13.07;;
11522;SDS011;40093;43.224;27.910;2023-02-25T13:42:40;26.87;;;11.90;;
11522;SDS011;40093;43.224;27.910;2023-02-25T13:45:35;21.40;;;11.37;;
11522;SDS011;40093;43.224;27.910;2023-02-25T13:51:28;25.23;;;12.97;;
11522;SDS011;40093;43.224;27.910;2023-02-25T13:54:14;20.23;;;12.67;;
11522;SDS011;40093;43.224;27.910;2023-02-25T13:59:56;19.83;;;11.90;;
11522;SDS011;40093;43.224;27.910;2023-02-25T14:02:40;20.67;;;11.90;;
11522;SDS011;40093;43.224;27.910;2023-02-25T14:08:32;24.97;;;12.10;;
11522;SDS011;40093;43.224;27.910;2023-02-25T14:11:18;20.87;;;11.80;;
11522;SDS011;40093;43.224;27.910;2023-02-25T14:13:59;21.37;;;12.53;;
11522;SDS011;40093;43.224;27.910;2023-02-25T14:16:44;17.60;;;12.10;;
11522;SDS011;40093;43.224;27.910;2023-02-25T14:19:21;19.47;;;12.37;;
11522;SDS011;40093;43.224;27.910;2023-02-25T14:22:08;23.97;;;11.83;;
11522;SDS011;40093;43.224;27.910;2023-02-25T14:24:47;20.73;;;11.87;;
11522;SDS011;40093;43.224;27.910;2023-02-25T14:27:25;18.33;;;11.43;;
11522;SDS011;40093;43.224;27.910;2023-02-25T14:30:02;19.33;;;11.93;;
11522;SDS011;40093;43.224;27.910;2023-02-25T14:32:43;22.60;;;12.67;;
11522;SDS011;40093;43.224;27.910;2023-02-25T14:35:30;18.27;;;11.50;;
11522;SDS011;40093;43.224;27.910;2023-02-25T14:38:11;22.90;;;12.63;;
11522;SDS011;40093;43.224;27.910;2023-02-25T14:40:41;19.67;;;11.90;;
11522;SDS011;40093;43.224;27.910;2023-02-25T14:43:17;20.67;;;12.67;;
11522;SDS011;40093;43.224;27.910;2023-02-25T14:45:52;24.70;;;13.63;;
11522;SDS011;40093;43.224;27.910;2023-02-25T14:48:25;22.53;;;14.10;;
11522;SDS011;40093;43.224;27.910;2023-02-25T14:51:03;21.97;;;14.93;;
11522;SDS011;40093;43.224;27.910;2023-02-25T14:53:55;23.83;;;14.53;;
11522;SDS011;40093;43.224;27.910;2023-02-25T14:56:42;17.93;;;12.87;;
11522;SDS011;40093;43.224;27.910;2023-02-25T14:59:31;17.87;;;12.40;;
11522;SDS011;40093;43.224;27.910;2023-02-25T15:02:23;24.97;;;12.67;;
11522;SDS011;40093;43.224;27.910;2023-02-25T15:05:00;18.07;;;12.40;;
11522;SDS011;40093;43.224;27.910;2023-02-25T15:07:42;21.70;;;13.37;;
11522;SDS011;40093;43.224;27.910;2023-02-25T15:10:38;22.43;;;13.13;;
11522;SDS011;40093;43.224;27.910;2023-02-25T15:13:24;23.43;;;14.07;;
11522;SDS011;40093;43.224;27.910;2023-02-25T15:16:14;32.83;;;17.93;;
11522;SDS011;40093;43.224;27.910;2023-02-25T15:19:16;21.17;;;13.43;;
11522;SDS011;40093;43.224;27.910;2023-02-25T15:24:43;34.13;;;21.37;;